Time;durP1;ratioP1;P1;durP2;ratioP2;P2;SDS_P1;SDS_P2;PMS_P1;PMS_P2;Temp;Humidity;BMP_temperature;BMP_pressure;BME280_temperature;BME280_humidity;BME280_pressure;Samples;Min_cycle;Max_cycle;Signal;HPM_P1;HPM_P2
2023/05/13 00:00:50;;;;;;;0.50;0.50;;;10.20;99.90;;;;;;4997811;28;20229;-67
2023/05/13 00:03:16;;;;;;;1.20;1.10;;;10.20;99.90;;;;;;5015037;28;20406;-68
2023/05/13 00:05:41;;;;;;;1.03;1.03;;;10.20;99.90;;;;;;5015370;28;20254;-68
2023/05/13 00:08:07;;;;;;;0.80;0.80;;;10.20;99.90;;;;;;5015416;28;20250;-68
2023/05/13 00:10:33;;;;;;;1.37;1.33;;;10.30;99.90;;;;;;5015315;28;20679;-68
2023/05/13 00:12:59;;;;;;;1.52;1.42;;;10.30;99.90;;;;;;5015419;28;20231;-68
2023/05/13 00:15:26;;;;;;;0.60;0.60;;;10.30;99.90;;;;;;5015303;28;20194;-68
2023/05/13 00:17:52;;;;;;;2.47;1.98;;;10.20;99.90;;;;;;5015169;28;20531;-68
2023/05/13 00:20:18;;;;;;;1.30;1.20;;;10.20;99.90;;;;;;5014982;28;20195;-68
2023/05/13 00:22:44;;;;;;;0.73;0.73;;;10.20;99.90;;;;;;5015181;28;20168;-68
2023/05/13 00:25:09;;;;;;;0.60;0.60;;;10.10;99.90;;;;;;5014930;28;20250;-68
2023/05/13 00:27:35;;;;;;;0.80;0.40;;;10.10;99.90;;;;;;5015277;28;20639;-68
2023/05/13 00:30:01;;;;;;;0.70;0.70;;;10.10;99.90;;;;;;5015017;28;20238;-68
2023/05/13 00:32:26;;;;;;;0.57;0.57;;;10.10;99.90;;;;;;5014986;28;20172;-67
2023/05/13 00:34:52;;;;;;;0.40;0.40;;;10.00;99.90;;;;;;5014907;28;20174;-68
2023/05/13 00:37:18;;;;;;;2.10;0.77;;;10.00;99.90;;;;;;5014916;28;20250;-68
2023/05/13 00:39:44;;;;;;;1.37;1.27;;;9.80;99.90;;;;;;5014863;28;20769;-68
2023/05/13 00:42:11;;;;;;;0.80;0.80;;;9.90;99.90;;;;;;5014860;28;20187;-68
2023/05/13 00:44:37;;;;;;;1.63;1.50;;;9.90;99.90;;;;;;5014664;28;20616;-68
2023/05/13 00:47:04;;;;;;;2.00;1.90;;;10.00;99.90;;;;;;5015335;28;20168;-67
2023/05/13 00:49:34;;;;;;;1.50;1.20;;;10.00;99.90;;;;;;5014553;28;20481;-68
2023/05/13 00:52:00;;;;;;;1.13;1.13;;;10.00;99.90;;;;;;5014846;28;20196;-68
2023/05/13 00:54:30;;;;;;;1.30;1.13;;;10.00;99.90;;;;;;5014631;28;20251;-68
2023/05/13 00:56:56;;;;;;;1.48;0.70;;;9.90;99.90;;;;;;5014635;28;20214;-68
2023/05/13 00:59:27;;;;;;;2.55;2.08;;;9.90;99.90;;;;;;5014615;28;20534;-68
2023/05/13 01:01:59;;;;;;;1.20;0.95;;;9.90;99.90;;;;;;5014359;28;20187;-68
2023/05/13 01:04:40;;;;;;;1.58;1.55;;;9.90;99.90;;;;;;5014271;28;20539;-68
2023/05/13 01:07:24;;;;;;;1.73;1.30;;;10.00;99.90;;;;;;5014293;28;20175;-68
2023/05/13 01:10:17;;;;;;;2.28;1.10;;;10.10;99.90;;;;;;5014477;28;20183;-67
2023/05/13 01:12:45;;;;;;;0.95;0.95;;;10.10;99.90;;;;;;5014194;28;20219;-68
2023/05/13 01:15:17;;;;;;;0.73;0.73;;;10.20;99.90;;;;;;5013152;28;20175;-67
2023/05/13 01:18:09;;;;;;;0.93;0.82;;;10.20;99.90;;;;;;5014090;28;20178;-68
2023/05/13 01:20:37;;;;;;;2.30;1.55;;;10.20;99.90;;;;;;5014070;28;20203;-68
2023/05/13 01:23:03;;;;;;;1.02;0.93;;;10.30;99.90;;;;;;5014071;28;20173;-68
2023/05/13 01:25:28;;;;;;;0.80;0.73;;;10.20;99.90;;;;;;5013906;28;20258;-67
2023/05/13 01:27:54;;;;;;;0.43;0.43;;;10.20;99.90;;;;;;5014009;28;20251;-68
2023/05/13 01:30:22;;;;;;;0.80;0.80;;;10.20;99.90;;;;;;5013948;28;20192;-68
2023/05/13 01:32:48;;;;;;;0.50;0.50;;;10.20;99.90;;;;;;5013958;28;20410;-68
2023/05/13 01:35:15;;;;;;;0.70;0.70;;;10.20;99.90;;;;;;4996242;28;20666;-68
2023/05/13 01:37:42;;;;;;;0.50;0.50;;;10.30;99.90;;;;;;5013881;28;20802;-68
2023/05/13 01:40:09;;;;;;;0.80;0.80;;;10.30;99.90;;;;;;5013966;28;20779;-67
2023/05/13 01:42:35;;;;;;;1.20;0.77;;;10.30;99.90;;;;;;5013915;28;20262;-68
2023/05/13 01:45:01;;;;;;;0.50;0.50;;;10.30;99.90;;;;;;5013665;28;20251;-67
2023/05/13 01:47:27;;;;;;;0.40;0.40;;;10.30;99.90;;;;;;5013874;28;20172;-68
2023/05/13 01:49:52;;;;;;;3.60;1.17;;;10.30;99.90;;;;;;5013648;28;20199;-68
2023/05/13 01:52:18;;;;;;;0.70;0.70;;;10.20;99.90;;;;;;5013699;28;20182;-68
2023/05/13 01:54:43;;;;;;;1.33;1.33;;;10.20;99.90;;;;;;5013729;28;20175;-68
2023/05/13 01:57:09;;;;;;;0.60;0.50;;;10.30;99.90;;;;;;5013699;28;20185;-68
2023/05/13 01:59:35;;;;;;;0.70;0.70;;;10.20;99.90;;;;;;5013629;28;20214;-67
2023/05/13 02:02:00;;;;;;;1.13;1.13;;;10.30;99.90;;;;;;5013495;28;20686;-68
2023/05/13 02:04:26;;;;;;;0.50;0.50;;;10.40;99.90;;;;;;5013298;28;20175;-68
2023/05/13 02:06:52;;;;;;;0.40;0.40;;;10.40;99.90;;;;;;5013749;28;20225;-68
2023/05/13 02:09:17;;;;;;;0.40;0.40;;;10.50;99.90;;;;;;5013542;28;20163;-68
2023/05/13 02:11:45;;;;;;;0.50;0.50;;;10.50;99.90;;;;;;5013299;28;20573;-68
2023/05/13 02:14:10;;;;;;;1.53;1.43;;;10.60;99.90;;;;;;5013653;28;20176;-68
2023/05/13 02:16:36;;;;;;;0.77;0.77;;;10.60;99.90;;;;;;5013218;28;20464;-67
2023/05/13 02:19:02;;;;;;;0.73;0.73;;;10.60;99.90;;;;;;5013385;28;20254;-68
2023/05/13 02:21:27;;;;;;;2.33;2.23;;;10.50;99.90;;;;;;5013274;28;20559;-68
2023/05/13 02:23:53;;;;;;;0.70;0.70;;;10.50;99.90;;;;;;5013530;28;20640;-67
2023/05/13 02:26:18;;;;;;;0.90;0.90;;;10.40;99.90;;;;;;5015282;28;20625;-68
2023/05/13 02:28:44;;;;;;;0.90;0.90;;;10.40;99.90;;;;;;5017291;28;20214;-68
2023/05/13 02:31:09;;;;;;;0.93;0.93;;;10.30;99.90;;;;;;5017140;28;20198;-68
2023/05/13 02:33:35;;;;;;;1.07;0.90;;;10.20;99.90;;;;;;5017192;28;20191;-68
2023/05/13 02:36:01;;;;;;;0.70;0.70;;;10.20;99.90;;;;;;5017084;28;20604;-68
2023/05/13 02:38:27;;;;;;;1.13;1.10;;;10.10;99.90;;;;;;5017213;28;20171;-68
2023/05/13 02:40:52;;;;;;;0.40;0.40;;;10.00;99.90;;;;;;5016935;28;20508;-68
2023/05/13 02:43:18;;;;;;;1.60;1.50;;;9.90;99.90;;;;;;5017047;28;20179;-67
2023/05/13 02:45:45;;;;;;;1.23;0.80;;;9.70;99.90;;;;;;5016768;28;20172;-68
2023/05/13 02:48:10;;;;;;;1.83;1.67;;;9.60;99.90;;;;;;5017114;28;20258;-67
2023/05/13 02:50:36;;;;;;;0.93;0.93;;;9.90;99.90;;;;;;5017014;28;20634;-67
2023/05/13 02:53:02;;;;;;;1.43;1.00;;;9.60;99.90;;;;;;5017053;28;20183;-68
2023/05/13 02:55:27;;;;;;;0.60;0.60;;;9.50;99.90;;;;;;5016728;28;20178;-68
2023/05/13 02:57:55;;;;;;;0.50;0.50;;;9.50;99.90;;;;;;5016991;28;20175;-68
2023/05/13 03:00:21;;;;;;;0.55;0.55;;;9.40;99.90;;;;;;5016627;28;20187;-68
2023/05/13 03:02:46;;;;;;;0.93;0.83;;;9.30;99.90;;;;;;5016646;28;20183;-68
2023/05/13 03:05:12;;;;;;;0.50;0.50;;;9.20;99.90;;;;;;5016435;28;20698;-68
2023/05/13 03:07:38;;;;;;;0.77;0.77;;;9.10;99.90;;;;;;5016594;28;20175;-68
2023/05/13 03:10:04;;;;;;;1.53;1.43;;;9.10;99.90;;;;;;5016614;28;20213;-68
2023/05/13 03:12:30;;;;;;;1.50;1.40;;;9.00;99.90;;;;;;5016376;28;20200;-67
2023/05/13 03:14:56;;;;;;;0.90;0.90;;;9.10;99.90;;;;;;5016349;28;20534;-67
2023/05/13 03:17:21;;;;;;;1.53;1.43;;;9.10;99.90;;;;;;5016366;28;20175;-68
2023/05/13 03:19:47;;;;;;;2.03;1.00;;;9.20;99.90;;;;;;5016267;28;20191;-68
2023/05/13 03:22:12;;;;;;;3.60;0.60;;;9.20;99.90;;;;;;5016448;28;20199;-68
2023/05/13 03:24:38;;;;;;;0.60;0.60;;;9.30;99.90;;;;;;5016397;28;20575;-67
2023/05/13 03:27:04;;;;;;;0.70;0.70;;;9.40;99.90;;;;;;5016278;28;20250;-68
2023/05/13 03:29:30;;;;;;;0.80;0.80;;;9.20;99.90;;;;;;5016283;28;20247;-67
2023/05/13 03:31:55;;;;;;;2.10;1.50;;;9.50;99.90;;;;;;5016036;28;20949;-67
2023/05/13 03:34:21;;;;;;;1.63;1.53;;;9.60;99.90;;;;;;5015960;28;20184;-67
2023/05/13 03:36:46;;;;;;;2.13;1.10;;;9.60;99.90;;;;;;5013801;28;20182;-68
2023/05/13 03:39:12;;;;;;;1.83;1.70;;;9.70;99.90;;;;;;5015738;28;20175;-68
2023/05/13 03:41:38;;;;;;;0.67;0.67;;;9.80;99.90;;;;;;5015062;28;20207;-67
2023/05/13 03:44:03;;;;;;;1.17;1.13;;;9.90;99.90;;;;;;5016111;28;20207;-68
2023/05/13 03:46:29;;;;;;;1.57;1.40;;;10.00;99.90;;;;;;5015774;28;20172;-68
2023/05/13 03:48:55;;;;;;;2.00;1.90;;;10.00;99.90;;;;;;5015926;28;20168;-68
2023/05/13 03:51:21;;;;;;;0.70;0.70;;;9.90;99.90;;;;;;5015904;28;20570;-67
2023/05/13 03:53:47;;;;;;;1.30;1.25;;;9.90;99.90;;;;;;5015692;28;20258;-68
2023/05/13 03:56:13;;;;;;;0.80;0.80;;;9.90;99.90;;;;;;5015495;28;20249;-68
2023/05/13 03:58:39;;;;;;;0.93;0.88;;;9.90;99.90;;;;;;5016055;28;20176;-67
2023/05/13 04:01:06;;;;;;;0.70;0.70;;;10.00;99.90;;;;;;5015630;28;20211;-68
2023/05/13 04:03:33;;;;;;;1.02;1.02;;;10.00;99.90;;;;;;5015619;28;20168;-68
2023/05/13 04:05:59;;;;;;;1.55;1.45;;;10.10;99.90;;;;;;5015278;28;20234;-67
2023/05/13 04:08:24;;;;;;;0.60;0.60;;;10.10;99.90;;;;;;5015377;28;20168;-68
2023/05/13 04:10:50;;;;;;;1.23;1.23;;;10.00;99.90;;;;;;5015428;28;20198;-67
2023/05/13 04:13:16;;;;;;;1.87;1.70;;;10.00;99.90;;;;;;5015242;28;20714;-68
2023/05/13 04:15:41;;;;;;;2.67;1.37;;;10.10;99.90;;;;;;5015078;28;20790;-68
2023/05/13 04:18:07;;;;;;;0.70;0.70;;;10.10;99.90;;;;;;5015319;28;20176;-68
2023/05/13 04:20:33;;;;;;;1.43;1.27;;;10.00;99.90;;;;;;5015034;28;20559;-68
2023/05/13 04:23:00;;;;;;;1.45;1.38;;;10.10;99.90;;;;;;5015318;28;20174;-68
2023/05/13 04:25:26;;;;;;;1.52;1.08;;;10.20;99.90;;;;;;5014927;28;20503;-68
2023/05/13 04:27:51;;;;;;;0.83;0.73;;;10.30;99.90;;;;;;5015284;28;20163;-67
2023/05/13 04:30:17;;;;;;;1.63;1.33;;;10.30;99.90;;;;;;5015023;28;20674;-68
2023/05/13 04:32:42;;;;;;;0.67;0.67;;;10.30;99.90;;;;;;5015195;28;20171;-68
2023/05/13 04:35:08;;;;;;;0.50;0.50;;;10.30;99.90;;;;;;5015011;28;20199;-67
2023/05/13 04:37:34;;;;;;;1.30;1.30;;;10.30;99.90;;;;;;5015009;28;20167;-68
2023/05/13 04:40:00;;;;;;;1.13;1.13;;;10.30;99.90;;;;;;5014881;28;20948;-67
2023/05/13 04:42:25;;;;;;;0.73;0.73;;;10.40;99.90;;;;;;5014708;28;20195;-68
2023/05/13 04:44:51;;;;;;;0.70;0.70;;;10.50;99.90;;;;;;5013789;28;20624;-68
2023/05/13 04:47:17;;;;;;;1.77;1.67;;;10.50;99.90;;;;;;5014687;28;20567;-67
2023/05/13 04:49:43;;;;;;;1.00;1.00;;;10.50;99.90;;;;;;5014510;28;20171;-68
2023/05/13 04:52:11;;;;;;;1.40;1.30;;;10.60;99.90;;;;;;5014717;28;20921;-68
2023/05/13 04:54:38;;;;;;;1.73;1.63;;;10.70;99.90;;;;;;5014782;28;20252;-68
2023/05/13 04:57:04;;;;;;;0.80;0.77;;;10.80;99.90;;;;;;5014497;28;20406;-67
2023/05/13 04:59:30;;;;;;;1.30;1.20;;;10.60;99.90;;;;;;5014581;28;20446;-68
2023/05/13 05:01:56;;;;;;;0.60;0.60;;;10.80;99.90;;;;;;5014362;28;20453;-67
2023/05/13 05:04:22;;;;;;;1.10;1.10;;;10.90;99.90;;;;;;5014374;28;20407;-68
2023/05/13 05:06:47;;;;;;;0.60;0.60;;;11.00;99.90;;;;;;5014298;28;20220;-68
2023/05/13 05:09:13;;;;;;;1.70;1.60;;;11.00;99.90;;;;;;5014250;28;20503;-67
2023/05/13 05:11:39;;;;;;;2.10;1.93;;;11.10;99.90;;;;;;5014112;28;20234;-68
2023/05/13 05:14:04;;;;;;;2.97;1.83;;;11.10;99.90;;;;;;4996685;28;20175;-68
2023/05/13 05:16:30;;;;;;;0.77;0.77;;;11.10;99.90;;;;;;5014134;28;20172;-68
2023/05/13 05:18:56;;;;;;;0.97;0.87;;;11.10;99.90;;;;;;5014245;28;20258;-68
2023/05/13 05:21:22;;;;;;;1.57;0.90;;;11.20;99.90;;;;;;5014011;28;20195;-68
2023/05/13 05:23:48;;;;;;;1.33;1.13;;;11.40;99.90;;;;;;5014272;28;20206;-68
2023/05/13 05:26:13;;;;;;;1.80;1.70;;;11.50;99.90;;;;;;5013857;28;20402;-68
2023/05/13 05:28:41;;;;;;;0.60;0.60;;;11.50;99.90;;;;;;5014209;28;20163;-68
2023/05/13 05:31:08;;;;;;;0.47;0.47;;;11.60;99.90;;;;;;5013865;28;20187;-68
2023/05/13 05:33:34;;;;;;;2.20;2.10;;;11.60;99.90;;;;;;5013876;28;20410;-68
2023/05/13 05:36:00;;;;;;;1.27;1.27;;;11.60;99.90;;;;;;5013544;28;20407;-66
2023/05/13 05:38:26;;;;;;;1.70;0.80;;;11.70;99.90;;;;;;5013934;28;20409;-68
2023/05/13 05:40:52;;;;;;;1.30;1.30;;;11.70;99.90;;;;;;5013674;28;20450;-68
2023/05/13 05:43:18;;;;;;;1.30;1.20;;;11.70;99.90;;;;;;5013886;28;20275;-68
2023/05/13 05:45:43;;;;;;;0.83;0.83;;;11.60;99.90;;;;;;5013535;28;20179;-68
2023/05/13 05:48:09;;;;;;;0.73;0.73;;;11.70;99.90;;;;;;5013869;28;20407;-68
2023/05/13 05:50:35;;;;;;;1.67;1.57;;;11.60;99.90;;;;;;5013681;28;20219;-68
2023/05/13 05:53:01;;;;;;;1.63;1.20;;;11.60;99.90;;;;;;5013795;28;20199;-68
2023/05/13 05:55:27;;;;;;;1.77;1.67;;;11.50;99.90;;;;;;5013833;28;20554;-68
2023/05/13 05:57:53;;;;;;;1.50;1.40;;;11.50;99.90;;;;;;5013908;28;20485;-68
2023/05/13 06:00:19;;;;;;;1.53;1.43;;;11.60;99.90;;;;;;5012963;28;20922;-68
2023/05/13 06:02:45;;;;;;;1.73;1.60;;;11.70;99.90;;;;;;5013653;28;20506;-68
2023/05/13 06:05:10;;;;;;;0.70;0.53;;;11.60;99.90;;;;;;5013244;28;20254;-68
2023/05/13 06:07:36;;;;;;;1.10;1.10;;;11.60;99.90;;;;;;5013678;28;20176;-68
2023/05/13 06:10:02;;;;;;;0.70;0.63;;;11.50;99.90;;;;;;5013565;28;20195;-68
2023/05/13 06:12:28;;;;;;;1.80;1.70;;;11.50;99.90;;;;;;5013355;28;20560;-68
2023/05/13 06:14:54;;;;;;;0.60;0.60;;;11.50;99.90;;;;;;5013270;28;20418;-68
2023/05/13 06:17:20;;;;;;;3.03;0.93;;;11.70;99.90;;;;;;5013508;28;20417;-67
2023/05/13 06:19:45;;;;;;;2.10;1.17;;;11.40;99.90;;;;;;5012965;28;20411;-68
2023/05/13 06:22:11;;;;;;;0.70;0.70;;;11.70;99.90;;;;;;5013293;28;20198;-68
2023/05/13 06:24:37;;;;;;;1.40;1.30;;;11.70;99.90;;;;;;5013204;28;20171;-68
2023/05/13 06:27:04;;;;;;;0.90;0.90;;;11.80;99.90;;;;;;5013401;28;20580;-68
2023/05/13 06:29:30;;;;;;;0.63;0.63;;;11.80;99.90;;;;;;5013074;28;20426;-68
2023/05/13 06:31:55;;;;;;;5.07;2.43;;;11.80;99.90;;;;;;5013378;28;20473;-68
2023/05/13 06:34:21;;;;;;;0.93;0.87;;;11.80;99.90;;;;;;5013201;28;20410;-68
2023/05/13 06:36:47;;;;;;;1.40;1.30;;;11.90;99.90;;;;;;5013071;28;20538;-68
2023/05/13 06:39:12;;;;;;;0.70;0.70;;;12.00;99.90;;;;;;5012858;28;20667;-68
2023/05/13 06:41:39;;;;;;;0.60;0.60;;;12.00;99.90;;;;;;5013126;28;20286;-67
2023/05/13 06:44:05;;;;;;;0.70;0.70;;;12.10;99.90;;;;;;5013211;28;20179;-68
2023/05/13 06:46:31;;;;;;;0.77;0.73;;;12.20;99.90;;;;;;5013156;28;20398;-68
2023/05/13 06:48:57;;;;;;;1.73;1.60;;;12.20;99.90;;;;;;5013171;28;20466;-68
2023/05/13 06:51:26;;;;;;;0.60;0.60;;;12.10;99.90;;;;;;5013139;28;20465;-68
2023/05/13 06:53:52;;;;;;;0.80;0.80;;;12.10;99.90;;;;;;5013071;28;20250;-69
2023/05/13 06:56:18;;;;;;;0.77;0.77;;;12.20;99.90;;;;;;5012944;28;20884;-68
2023/05/13 06:58:44;;;;;;;0.70;0.70;;;12.20;99.90;;;;;;5011037;28;20828;-68
2023/05/13 07:01:09;;;;;;;0.50;0.50;;;12.30;99.90;;;;;;5012523;28;20545;-67
2023/05/13 07:03:36;;;;;;;0.60;0.60;;;12.30;99.90;;;;;;5012995;28;20172;-69
2023/05/13 07:06:03;;;;;;;0.60;0.53;;;12.40;99.90;;;;;;5012613;28;20179;-68
2023/05/13 07:08:29;;;;;;;0.70;0.70;;;12.40;99.90;;;;;;5012530;28;20452;-68
2023/05/13 07:10:54;;;;;;;0.90;0.90;;;12.50;99.90;;;;;;5011806;28;20556;-68
2023/05/13 07:13:21;;;;;;;0.80;0.80;;;12.50;99.90;;;;;;5014619;28;20194;-68
2023/05/13 07:15:47;;;;;;;0.60;0.60;;;12.60;99.90;;;;;;5016312;28;20168;-68
2023/05/13 07:18:12;;;;;;;0.90;0.87;;;12.70;99.90;;;;;;5016485;28;20481;-67
2023/05/13 07:20:38;;;;;;;1.33;0.97;;;12.60;99.90;;;;;;5016538;28;20462;-68
2023/05/13 07:23:04;;;;;;;1.30;1.27;;;12.60;99.90;;;;;;5016260;28;20178;-68
2023/05/13 07:25:29;;;;;;;2.57;2.23;;;12.60;99.90;;;;;;5016272;28;20167;-68
2023/05/13 07:27:55;;;;;;;0.53;0.53;;;12.70;99.90;;;;;;5016191;28;20164;-68
2023/05/13 07:30:21;;;;;;;0.90;0.90;;;12.80;99.90;;;;;;5016437;28;20184;-68
2023/05/13 07:32:46;;;;;;;0.80;0.80;;;12.90;99.90;;;;;;5016201;28;20251;-68
2023/05/13 07:35:12;;;;;;;1.00;1.00;;;12.90;99.90;;;;;;5016118;28;20181;-68
2023/05/13 07:37:38;;;;;;;0.63;0.63;;;12.90;99.90;;;;;;5015830;28;20204;-68
2023/05/13 07:40:07;;;;;;;1.20;1.03;;;13.00;99.90;;;;;;5016020;28;20187;-68
2023/05/13 07:42:33;;;;;;;1.20;1.10;;;13.10;99.90;;;;;;5015832;28;20237;-69
2023/05/13 07:44:59;;;;;;;0.47;0.47;;;13.30;99.90;;;;;;5015934;28;20770;-68
2023/05/13 07:47:26;;;;;;;2.50;2.30;;;13.40;99.90;;;;;;5015845;28;20399;-68
2023/05/13 07:49:52;;;;;;;1.70;1.60;;;13.50;99.90;;;;;;5015808;28;20196;-69
2023/05/13 07:52:17;;;;;;;0.80;0.80;;;13.60;99.90;;;;;;5015819;28;20414;-68
2023/05/13 07:54:43;;;;;;;0.90;0.90;;;13.60;99.70;;;;;;5015607;28;20178;-68
2023/05/13 07:57:09;;;;;;;1.13;0.90;;;13.60;99.10;;;;;;5015463;28;20180;-69
2023/05/13 07:59:34;;;;;;;0.83;0.83;;;13.90;99.90;;;;;;5015533;28;20175;-68
2023/05/13 08:02:00;;;;;;;0.83;0.83;;;13.70;99.40;;;;;;5015485;28;20266;-69
2023/05/13 08:04:26;;;;;;;1.53;1.03;;;13.90;98.50;;;;;;5015763;28;20309;-68
2023/05/13 08:06:51;;;;;;;1.03;0.87;;;14.00;97.60;;;;;;5015268;28;20183;-69
2023/05/13 08:09:17;;;;;;;0.90;0.83;;;14.30;97.90;;;;;;5015590;28;20250;-68
2023/05/13 08:11:43;;;;;;;0.77;0.77;;;14.50;97.30;;;;;;5015218;28;20199;-69
2023/05/13 08:14:08;;;;;;;0.77;0.70;;;14.60;97.00;;;;;;5015388;28;20172;-68
2023/05/13 08:16:37;;;;;;;0.50;0.40;;;14.50;96.80;;;;;;5015205;28;20485;-68
2023/05/13 08:19:03;;;;;;;1.23;1.17;;;14.70;97.40;;;;;;5015405;28;20537;-67
2023/05/13 08:21:29;;;;;;;2.57;2.47;;;14.80;96.20;;;;;;5015062;28;20503;-70
2023/05/13 08:23:55;;;;;;;1.43;1.43;;;14.80;95.50;;;;;;5014899;28;20406;-69
2023/05/13 08:26:21;;;;;;;1.53;1.43;;;14.90;95.10;;;;;;5014943;28;20186;-69
2023/05/13 08:28:47;;;;;;;1.27;1.00;;;14.90;95.10;;;;;;5015136;28;20399;-69
2023/05/13 08:31:13;;;;;;;0.90;0.90;;;15.00;95.30;;;;;;5014960;28;20201;-69
2023/05/13 08:33:40;;;;;;;1.03;1.03;;;14.90;94.70;;;;;;5015176;28;20195;-70
2023/05/13 08:36:06;;;;;;;0.50;0.50;;;15.00;94.80;;;;;;5014746;28;20406;-70
2023/05/13 08:38:32;;;;;;;0.43;0.43;;;15.10;94.90;;;;;;5014987;28;20413;-69
2023/05/13 08:40:58;;;;;;;0.67;0.67;;;15.20;93.90;;;;;;4996408;28;20465;-71
2023/05/13 08:43:27;;;;;;;1.20;0.80;;;15.20;93.90;;;;;;5014079;28;20409;-70
2023/05/13 08:45:55;;;;;;;1.70;0.90;;;15.00;93.40;;;;;;5013452;28;20410;-70
2023/05/13 08:48:23;;;;;;;0.60;0.60;;;14.90;94.00;;;;;;5014458;28;20461;-71
2023/05/13 08:50:49;;;;;;;0.73;0.73;;;15.00;94.40;;;;;;5014769;28;20435;-70
2023/05/13 08:53:17;;;;;;;0.93;0.83;;;15.00;94.30;;;;;;5014688;28;20411;-70
2023/05/13 08:55:43;;;;;;;0.40;0.40;;;15.00;94.40;;;;;;5014403;28;20837;-70
2023/05/13 08:58:08;;;;;;;1.73;0.60;;;15.00;94.00;;;;;;5014821;28;20490;-71
2023/05/13 09:00:34;;;;;;;0.50;0.50;;;14.90;94.30;;;;;;5014579;28;20653;-70
2023/05/13 09:03:00;;;;;;;0.30;0.30;;;14.90;93.70;;;;;;5014623;28;20628;-70
2023/05/13 09:05:26;;;;;;;0.87;0.87;;;14.90;93.60;;;;;;5014205;28;20407;-71
2023/05/13 09:07:53;;;;;;;0.50;0.50;;;14.90;94.00;;;;;;5014541;28;20407;-70
2023/05/13 09:10:19;;;;;;;0.57;0.57;;;14.90;93.60;;;;;;5014260;28;20453;-70
2023/05/13 09:12:50;;;;;;;0.43;0.43;;;14.80;93.80;;;;;;5014251;28;20759;-71
2023/05/13 09:15:26;;;;;;;0.43;0.43;;;14.80;94.20;;;;;;5014350;28;20418;-72
2023/05/13 09:18:03;;;;;;;0.53;0.53;;;14.90;94.50;;;;;;5013767;28;20414;-73
2023/05/13 09:20:29;;;;;;;1.60;1.17;;;14.90;93.60;;;;;;5014015;28;20840;-72
2023/05/13 09:23:16;;;;;;;0.60;0.60;;;14.60;93.70;;;;;;5014244;28;20438;-74
2023/05/13 09:25:42;;;;;;;0.83;0.83;;;14.60;93.80;;;;;;5014159;28;20572;-71
2023/05/13 09:28:08;;;;;;;1.90;0.70;;;14.70;93.70;;;;;;5014217;28;20488;-73
2023/05/13 09:30:37;;;;;;;0.57;0.57;;;14.70;94.00;;;;;;5012754;28;20431;-71
2023/05/13 09:33:08;;;;;;;0.70;0.70;;;14.90;93.10;;;;;;5013895;28;20175;-71
2023/05/13 09:35:37;;;;;;;1.07;0.50;;;14.70;92.70;;;;;;5012993;28;20769;-71
2023/05/13 09:38:36;;;;;;;2.10;1.10;;;14.70;92.80;;;;;;5014587;28;20413;-71
2023/05/13 09:41:02;;;;;;;0.43;0.43;;;14.90;92.80;;;;;;4997504;28;20478;-71
2023/05/13 09:43:31;;;;;;;0.73;0.40;;;15.10;92.60;;;;;;5013279;28;20399;-71
2023/05/13 09:46:01;;;;;;;0.60;0.60;;;15.00;92.80;;;;;;5012785;28;20410;-71
2023/05/13 09:48:30;;;;;;;1.07;0.67;;;14.80;93.90;;;;;;5011792;28;20421;-71
2023/05/13 09:50:56;;;;;;;0.70;0.70;;;14.60;93.20;;;;;;5013761;28;20444;-71
2023/05/13 09:53:23;;;;;;;0.60;0.50;;;14.40;93.60;;;;;;5013759;28;20497;-71
2023/05/13 09:55:51;;;;;;;0.60;0.60;;;14.60;94.00;;;;;;5013970;28;20822;-71
2023/05/13 09:58:19;;;;;;;0.93;0.93;;;14.70;94.00;;;;;;5013780;28;20500;-71
2023/05/13 10:00:46;;;;;;;0.60;0.60;;;14.80;94.60;;;;;;5013313;28;20457;-71
2023/05/13 10:03:12;;;;;;;0.63;0.60;;;15.00;94.00;;;;;;5012456;28;20420;-71
2023/05/13 10:05:39;;;;;;;0.53;0.53;;;15.00;93.60;;;;;;5012321;28;20414;-71
2023/05/13 10:08:06;;;;;;;0.63;0.63;;;14.90;93.90;;;;;;5013319;28;20501;-71
2023/05/13 10:10:33;;;;;;;0.70;0.60;;;14.50;95.20;;;;;;4995704;28;21033;-72
2023/05/13 10:13:05;;;;;;;0.80;0.80;;;14.40;95.20;;;;;;5013466;28;20516;-69
2023/05/13 10:15:32;;;;;;;1.17;0.80;;;14.40;95.00;;;;;;5013312;28;20425;-70
2023/05/13 10:17:58;;;;;;;0.83;0.83;;;14.30;95.70;;;;;;4995369;28;20415;-69
2023/05/13 10:20:25;;;;;;;2.10;2.00;;;14.40;96.70;;;;;;5012864;28;20432;-71
2023/05/13 10:22:51;;;;;;;0.50;0.50;;;14.60;97.20;;;;;;5011726;28;20465;-72
2023/05/13 10:25:17;;;;;;;0.77;0.57;;;14.80;97.80;;;;;;5013060;28;20429;-71
2023/05/13 10:27:44;;;;;;;0.60;0.60;;;14.90;97.60;;;;;;5012838;28;20974;-71
2023/05/13 10:30:12;;;;;;;2.00;1.90;;;15.00;97.60;;;;;;5011762;28;20557;-72
2023/05/13 10:32:41;;;;;;;0.67;0.57;;;15.20;97.20;;;;;;5012356;28;20520;-70
2023/05/13 10:35:16;;;;;;;0.50;0.50;;;15.40;97.70;;;;;;5011971;28;20433;-72
2023/05/13 10:38:12;;;;;;;0.60;0.60;;;15.60;98.30;;;;;;5013067;28;20410;-72
2023/05/13 10:41:02;;;;;;;0.80;0.80;;;15.70;97.80;;;;;;5013256;28;20441;-69
2023/05/13 10:43:29;;;;;;;0.90;0.90;;;15.70;96.90;;;;;;5013209;28;20445;-69
2023/05/13 10:46:04;;;;;;;0.80;0.80;;;15.50;97.30;;;;;;5012997;28;20477;-69
2023/05/13 10:48:47;;;;;;;0.60;0.60;;;15.20;97.70;;;;;;5016885;28;20464;-70
2023/05/13 10:51:14;;;;;;;0.73;0.70;;;15.00;98.50;;;;;;5016923;28;20434;-69
2023/05/13 10:53:54;;;;;;;0.40;0.40;;;14.80;99.40;;;;;;5017168;28;20493;-70
2023/05/13 10:56:23;;;;;;;0.60;0.57;;;14.60;99.80;;;;;;5016880;28;20421;-70
2023/05/13 10:59:04;;;;;;;0.63;0.63;;;14.50;99.90;;;;;;5016884;28;20492;-68
2023/05/13 11:01:34;;;;;;;1.30;1.20;;;14.40;99.90;;;;;;5016748;28;20462;-69
2023/05/13 11:04:02;;;;;;;0.97;0.97;;;14.40;99.90;;;;;;5016970;28;20448;-69
2023/05/13 11:06:39;;;;;;;1.77;1.67;;;14.40;99.90;;;;;;5016475;28;20785;-69
2023/05/13 11:09:11;;;;;;;1.87;1.50;;;14.30;99.90;;;;;;5016903;28;20424;-69
2023/05/13 11:11:37;;;;;;;0.90;0.90;;;14.10;99.90;;;;;;5016327;28;20444;-68
2023/05/13 11:14:20;;;;;;;1.60;1.50;;;14.00;99.90;;;;;;5016823;28;20414;-69
2023/05/13 11:16:59;;;;;;;0.97;0.97;;;14.00;99.90;;;;;;5016380;28;20402;-68
2023/05/13 11:19:28;;;;;;;1.87;1.77;;;14.10;99.90;;;;;;5016672;28;20410;-69
2023/05/13 11:22:12;;;;;;;0.33;0.33;;;14.10;99.90;;;;;;5016219;28;20454;-69
2023/05/13 11:24:38;;;;;;;0.53;0.53;;;14.10;99.90;;;;;;5016559;28;20861;-70
2023/05/13 11:27:16;;;;;;;0.90;0.90;;;14.10;99.90;;;;;;5016135;28;20433;-69
2023/05/13 11:29:48;;;;;;;1.13;1.07;;;14.20;99.90;;;;;;5016185;28;20748;-69
2023/05/13 11:32:14;;;;;;;0.53;0.53;;;14.00;99.90;;;;;;5016208;28;20405;-69
2023/05/13 11:34:50;;;;;;;1.03;1.03;;;14.10;99.90;;;;;;5016299;28;20405;-68
2023/05/13 11:37:16;;;;;;;1.80;1.70;;;13.90;99.90;;;;;;5016158;28;20173;-68
2023/05/13 11:39:42;;;;;;;0.80;0.80;;;13.50;99.90;;;;;;5016127;28;20744;-69
2023/05/13 11:42:09;;;;;;;0.67;0.67;;;13.70;99.90;;;;;;5016187;28;20454;-69
2023/05/13 11:44:36;;;;;;;0.60;0.60;;;13.60;99.90;;;;;;5016115;28;20176;-68
2023/05/13 11:47:07;;;;;;;1.23;1.17;;;13.30;99.90;;;;;;5015891;28;20409;-69
2023/05/13 11:49:35;;;;;;;1.03;1.00;;;13.20;99.90;;;;;;5015969;28;20732;-68
2023/05/13 11:52:03;;;;;;;0.77;0.77;;;13.20;99.90;;;;;;5015844;28;20446;-69
2023/05/13 11:54:29;;;;;;;0.73;0.73;;;13.00;99.90;;;;;;5015745;28;20418;-68
2023/05/13 11:56:55;;;;;;;3.00;1.43;;;12.90;99.90;;;;;;5015691;28;20414;-69
2023/05/13 11:59:21;;;;;;;1.40;0.83;;;13.00;99.90;;;;;;5015041;28;20168;-69
2023/05/13 12:02:00;;;;;;;1.17;1.17;;;13.20;99.90;;;;;;5015688;28;20459;-70
2023/05/13 12:04:30;;;;;;;1.10;1.10;;;13.10;99.90;;;;;;5015831;28;20865;-69
2023/05/13 12:06:56;;;;;;;1.30;0.73;;;13.00;99.90;;;;;;5015403;28;20407;-68
2023/05/13 12:09:23;;;;;;;0.40;0.40;;;12.90;99.90;;;;;;5015559;28;20949;-68
2023/05/13 12:11:51;;;;;;;1.20;0.87;;;12.90;99.90;;;;;;4997728;28;20450;-69
2023/05/13 12:14:18;;;;;;;0.60;0.60;;;12.90;99.90;;;;;;5015621;28;20407;-69
2023/05/13 12:16:44;;;;;;;0.77;0.77;;;13.00;99.90;;;;;;5015230;28;20435;-68
2023/05/13 12:19:10;;;;;;;1.73;0.67;;;13.00;99.90;;;;;;5015527;28;20925;-69
2023/05/13 12:21:38;;;;;;;0.57;0.57;;;12.90;99.90;;;;;;5015125;28;20454;-69
2023/05/13 12:24:20;;;;;;;4.63;1.60;;;12.90;99.90;;;;;;5015223;28;20166;-72
2023/05/13 12:26:46;;;;;;;1.17;0.73;;;13.00;99.90;;;;;;5015140;28;20410;-70
2023/05/13 12:29:12;;;;;;;0.87;0.87;;;13.00;99.90;;;;;;5015286;28;20399;-71
2023/05/13 12:31:39;;;;;;;0.67;0.67;;;13.00;99.90;;;;;;5015075;28;20422;-70
2023/05/13 12:34:05;;;;;;;0.77;0.77;;;13.00;99.90;;;;;;5015115;28;20412;-71
2023/05/13 12:36:36;;;;;;;1.23;0.80;;;13.10;99.90;;;;;;5014553;28;20463;-72
2023/05/13 12:39:07;;;;;;;0.90;0.90;;;13.30;99.90;;;;;;5015268;28;20395;-71
2023/05/13 12:41:35;;;;;;;1.13;1.03;;;13.50;99.90;;;;;;5014841;28;20880;-71
2023/05/13 12:44:09;;;;;;;0.70;0.70;;;13.70;99.90;;;;;;5015060;28;20718;-71
2023/05/13 12:46:36;;;;;;;1.70;1.00;;;13.90;99.90;;;;;;5014781;28;20398;-72
2023/05/13 12:49:03;;;;;;;1.37;0.90;;;14.10;99.90;;;;;;5014337;28;20419;-72